Airfield :
LOGIN :

Register | Disclaimer

   EN    FR    IT 

 










Legend :    VFR   Marginal VFR   IFR   Intensive IFR   Very Intensive IFR
Visi :
Ceiling :
>= 8 km
>= 3000ft
5 to 8 km
1000 to 3000 ft
1500m to 5 km
500 to 1000 ft
800 to 1500m
200 to 500 ft
< 800m
< 200 ft
Symbols :   Thunderstorms  Fog  Heavy snow  Heavy precipitations  Wind > 20 kt
SIGMETs :     Misc.  Thunderstorms  Icing  Turbulence  Mountain Waves  Volcanic Ashes







- Airport Elevation : 156 ft
- IATA code : LCC


LIBN - Lecce Galatine (military)

CURRENT METAR :
  • 211655Z 33008KT 4500 BR SCT010 10/09 Q1025 RMK SCT VIS MIN 4500 WIND THR14 32006KT WIND THR32 33008KT GRN

EXPIRED METARs :
  • 211555Z 33012KT 7000 FEW015 SCT020 12/09 Q1024 RMK BKN VIS MIN 7000 WIND THR14 33013KT WIND THR32 33013KT WHT
  • 211455Z 34011KT 8000 FEW020 SCT030 12/09 Q1024 RMK BKN VIS MIN 8000 WIND THR14 35011KT WIND THR32 35012KT BLU

TAF TAF LIBN
Valid from the 21 at 15:00 until the 22 at 00:00 UTC


211400Z 2115/2124 32010KT 8000 FEW018 SCT030
No reported NOTAMs for that airfield.



MET'MAP, your aeronautical weather chart ! - Copyright ORBIFLY December 2007 - Disclaimer

ORBIFLY MET'MAP TEAM :

Programming & Development : Alexandra Zaïnal
Concept & Development : Baudouin d'Aumeries
Co-Development & Prog : Marc-Olivier Méhu
Technical & hardware support : Manuel Goepfert

Contact : metmap@orbifly.com




SOURCES & CREDITS :

   NOAA